Preview of NWS' New Version of Forecast
This preview is not operational and should not be used for support decisions.

Terminal Aerodrome Forecast (TAF)

Issued by National Weather Service (NWS)

                            
792 
FTUS42 KKEY 231137
TAFEYW
TAF
KEYW 231137Z 2312/2412 08012KT P6SM VCSH SCT025 SCT050
     FM231500 10013G22KT P6SM FEW025
     FM240200 10012KT P6SM VCSH SCT025=